Time;durP1;ratioP1;P1;durP2;ratioP2;P2;SDS_P1;SDS_P2;PMS_P1;PMS_P2;Temp;Humidity;BMP_temperature;BMP_pressure;BME280_temperature;BME280_humidity;BME280_pressure;Samples;Min_cycle;Max_cycle;Signal;HPM_P1;HPM_P2
2022/05/07 00:00:41;;;;;;;22.37;19.13;;;;;;;;;;7372251;19;20145;-78
2022/05/07 00:03:07;;;;;;;23.23;18.67;;;;;;;;;;7368717;19;20599;-78
2022/05/07 00:05:33;;;;;;;23.53;19.10;;;;;;;;;;7366390;19;20682;-77
2022/05/07 00:07:59;;;;;;;24.80;18.00;;;;;;;;;;7374582;19;20129;-78
2022/05/07 00:10:25;;;;;;;23.07;19.63;;;;;;;;;;7374691;19;20145;-78
2022/05/07 00:12:52;;;;;;;24.83;20.17;;;;;;;;;;7372639;19;20136;-78
2022/05/07 00:15:18;;;;;;;23.50;19.37;;;;;;;;;;7386217;19;20183;-79
2022/05/07 00:18:03;;;;;;;22.53;19.13;;;;;;;;;;7380559;19;20507;-80
2022/05/07 00:20:30;;;;;;;23.30;19.20;;;;;;;;;;7378135;19;20156;-78
2022/05/07 00:22:56;;;;;;;22.00;19.27;;;;;;;;;;7374147;19;20137;-79
2022/05/07 00:25:22;;;;;;;22.43;19.30;;;;;;;;;;7371961;19;20176;-79
2022/05/07 00:27:48;;;;;;;24.37;19.43;;;;;;;;;;7382481;19;20169;-79
2022/05/07 00:30:14;;;;;;;24.33;19.00;;;;;;;;;;7388450;19;20117;-79
2022/05/07 00:32:40;;;;;;;20.63;18.47;;;;;;;;;;7381589;19;20140;-80
2022/05/07 00:35:07;;;;;;;22.80;19.27;;;;;;;;;;7388344;19;20173;-81
2022/05/07 00:37:33;;;;;;;26.97;19.10;;;;;;;;;;7376559;19;20132;-79
2022/05/07 00:39:59;;;;;;;22.83;18.70;;;;;;;;;;7382417;19;20522;-79
2022/05/07 00:42:27;;;;;;;21.20;18.33;;;;;;;;;;7375799;19;20156;-78
2022/05/07 00:44:53;;;;;;;23.27;19.40;;;;;;;;;;7376411;19;20148;-78
2022/05/07 00:47:26;;;;;;;24.37;20.20;;;;;;;;;;7375155;19;20139;-77
2022/05/07 00:49:54;;;;;;;24.93;19.83;;;;;;;;;;7374626;19;20144;-78
2022/05/07 00:52:20;;;;;;;21.43;18.43;;;;;;;;;;7377374;19;20140;-77
2022/05/07 00:54:47;;;;;;;21.60;18.50;;;;;;;;;;7380013;19;20159;-77
2022/05/07 00:57:13;;;;;;;22.07;18.90;;;;;;;;;;7377300;19;20132;-77
2022/05/07 00:59:39;;;;;;;20.27;17.93;;;;;;;;;;7373559;19;20447;-77
2022/05/07 01:02:06;;;;;;;23.07;19.07;;;;;;;;;;7377790;19;20137;-79
2022/05/07 01:04:31;;;;;;;21.23;18.07;;;;;;;;;;7374588;19;20293;-79
2022/05/07 01:06:58;;;;;;;25.50;19.57;;;;;;;;;;7375401;19;20121;-79
2022/05/07 01:09:24;;;;;;;23.47;18.90;;;;;;;;;;7380300;19;20188;-77
2022/05/07 01:11:51;;;;;;;19.90;17.80;;;;;;;;;;7385768;19;20145;-79
2022/05/07 01:14:17;;;;;;;25.07;19.33;;;;;;;;;;7379661;19;20319;-77
2022/05/07 01:16:43;;;;;;;20.30;18.13;;;;;;;;;;7379855;19;20160;-78
2022/05/07 01:19:09;;;;;;;25.13;19.40;;;;;;;;;;7376236;19;20277;-78
2022/05/07 01:21:35;;;;;;;24.63;19.17;;;;;;;;;;7375150;19;20150;-77
2022/05/07 01:24:01;;;;;;;20.93;17.97;;;;;;;;;;7383374;19;20160;-78
2022/05/07 01:26:27;;;;;;;23.63;19.30;;;;;;;;;;7382022;19;20649;-78
2022/05/07 01:29:06;;;;;;;22.50;18.97;;;;;;;;;;7379818;19;20614;-77
2022/05/07 01:31:33;;;;;;;23.67;19.13;;;;;;;;;;7372772;19;20570;-79
2022/05/07 01:33:59;;;;;;;21.10;17.63;;;;;;;;;;7369451;19;20156;-78
2022/05/07 01:36:25;;;;;;;20.83;18.10;;;;;;;;;;7371918;19;20637;-78
2022/05/07 01:38:51;;;;;;;24.10;17.73;;;;;;;;;;7375576;19;20125;-77
2022/05/07 01:41:18;;;;;;;26.03;18.50;;;;;;;;;;7372041;19;20133;-77
2022/05/07 01:43:44;;;;;;;21.07;18.03;;;;;;;;;;7372703;19;20619;-77
2022/05/07 01:48:55;;;;;;;24.83;19.37;;;;;;;;;;7377867;19;20614;-78
2022/05/07 01:51:21;;;;;;;24.73;18.60;;;;;;;;;;7385942;19;20148;-79
2022/05/07 01:53:47;;;;;;;24.83;19.37;;;;;;;;;;7380488;19;20141;-78
2022/05/07 01:56:13;;;;;;;25.13;20.23;;;;;;;;;;7385625;19;20149;-78
2022/05/07 01:58:39;;;;;;;23.90;19.43;;;;;;;;;;7387737;19;20501;-78
2022/05/07 02:01:05;;;;;;;22.40;18.93;;;;;;;;;;7379954;19;20145;-80
2022/05/07 02:03:31;;;;;;;24.47;19.47;;;;;;;;;;7378495;19;20136;-78
2022/05/07 02:05:57;;;;;;;29.20;20.27;;;;;;;;;;7376877;19;20622;-79
2022/05/07 02:08:23;;;;;;;27.13;20.77;;;;;;;;;;7381599;19;20136;-77
2022/05/07 02:10:49;;;;;;;25.47;19.90;;;;;;;;;;7381446;19;20144;-77
2022/05/07 02:13:15;;;;;;;24.47;19.37;;;;;;;;;;7380239;19;20177;-77
2022/05/07 02:15:41;;;;;;;25.23;19.57;;;;;;;;;;7383836;19;20610;-80
2022/05/07 02:18:07;;;;;;;26.13;20.10;;;;;;;;;;7388806;19;20121;-77
2022/05/07 02:20:34;;;;;;;24.17;19.20;;;;;;;;;;7382134;19;20168;-78
2022/05/07 02:23:00;;;;;;;26.00;18.77;;;;;;;;;;7384293;19;20522;-76
2022/05/07 02:25:26;;;;;;;24.47;19.47;;;;;;;;;;7378981;19;20505;-77
2022/05/07 02:27:53;;;;;;;25.07;19.80;;;;;;;;;;7375543;19;20615;-77
2022/05/07 02:30:19;;;;;;;22.50;17.87;;;;;;;;;;7381680;19;20175;-78
2022/05/07 02:32:48;;;;;;;24.67;19.20;;;;;;;;;;7380876;19;20764;-78
2022/05/07 02:35:15;;;;;;;27.00;20.00;;;;;;;;;;7382176;19;20248;-77
2022/05/07 02:37:41;;;;;;;24.80;19.37;;;;;;;;;;7381571;19;20197;-81
2022/05/07 02:40:08;;;;;;;25.07;19.00;;;;;;;;;;7377964;19;20560;-79
2022/05/07 02:42:36;;;;;;;21.60;18.20;;;;;;;;;;7377672;19;20704;-77
2022/05/07 02:45:03;;;;;;;22.27;18.53;;;;;;;;;;7377720;19;20200;-78
2022/05/07 02:47:29;;;;;;;27.93;19.57;;;;;;;;;;7383378;19;20148;-79
2022/05/07 02:49:55;;;;;;;22.70;18.23;;;;;;;;;;7383844;19;20168;-78
2022/05/07 02:52:22;;;;;;;22.73;18.17;;;;;;;;;;7380355;19;20148;-77
2022/05/07 02:54:48;;;;;;;23.57;18.37;;;;;;;;;;7378705;19;20176;-80
2022/05/07 02:57:14;;;;;;;21.90;17.37;;;;;;;;;;7373558;19;20141;-77
2022/05/07 02:59:41;;;;;;;21.40;17.80;;;;;;;;;;7382670;19;20153;-76
2022/05/07 03:02:08;;;;;;;26.40;18.87;;;;;;;;;;7375574;19;20484;-77
2022/05/07 03:04:34;;;;;;;20.53;17.33;;;;;;;;;;7369762;19;20216;-77
2022/05/07 03:07:01;;;;;;;22.43;18.53;;;;;;;;;;7372933;19;20232;-77
2022/05/07 03:09:27;;;;;;;22.67;17.60;;;;;;;;;;7370479;19;20149;-78
2022/05/07 03:11:53;;;;;;;24.70;17.83;;;;;;;;;;7367976;19;20149;-77
2022/05/07 03:14:19;;;;;;;22.63;18.37;;;;;;;;;;7373278;19;20227;-80
2022/05/07 03:16:47;;;;;;;21.87;18.13;;;;;;;;;;7367507;19;21972;-78
2022/05/07 03:19:13;;;;;;;21.03;16.97;;;;;;;;;;7372452;19;20146;-79
2022/05/07 03:21:39;;;;;;;21.43;17.60;;;;;;;;;;7379205;19;20152;-76
2022/05/07 03:24:05;;;;;;;18.73;16.20;;;;;;;;;;7371886;19;20133;-79
2022/05/07 03:26:31;;;;;;;22.00;17.63;;;;;;;;;;7370775;19;20211;-77
2022/05/07 03:28:57;;;;;;;22.00;17.40;;;;;;;;;;7375885;19;20163;-80
2022/05/07 03:31:23;;;;;;;21.13;17.80;;;;;;;;;;7364870;19;20149;-78
2022/05/07 03:33:49;;;;;;;22.37;16.83;;;;;;;;;;7366526;19;20503;-77
2022/05/07 03:36:15;;;;;;;19.83;16.67;;;;;;;;;;7370320;19;20165;-79
2022/05/07 03:38:42;;;;;;;20.50;17.43;;;;;;;;;;7370360;19;20199;-77
2022/05/07 03:41:08;;;;;;;18.83;16.20;;;;;;;;;;7377519;19;20133;-76
2022/05/07 03:43:36;;;;;;;21.90;17.20;;;;;;;;;;7381188;19;20168;-78
2022/05/07 03:46:02;;;;;;;21.10;17.93;;;;;;;;;;7376364;19;20224;-79
2022/05/07 03:48:29;;;;;;;20.40;16.53;;;;;;;;;;7372595;19;20524;-77
2022/05/07 03:50:55;;;;;;;18.70;16.40;;;;;;;;;;7371897;19;20139;-78
2022/05/07 03:53:30;;;;;;;19.50;16.67;;;;;;;;;;7376845;19;20129;-77
2022/05/07 03:55:59;;;;;;;20.97;17.00;;;;;;;;;;7373136;19;20183;-76
2022/05/07 03:58:26;;;;;;;21.83;16.70;;;;;;;;;;7369385;19;20483;-77
2022/05/07 04:00:53;;;;;;;20.63;16.83;;;;;;;;;;7375304;19;20647;-79
2022/05/07 04:03:19;;;;;;;19.33;16.57;;;;;;;;;;7368172;19;20145;-78
2022/05/07 04:05:45;;;;;;;24.03;17.97;;;;;;;;;;7375546;19;20502;-77
2022/05/07 04:08:11;;;;;;;22.27;17.17;;;;;;;;;;7374362;19;20128;-77
2022/05/07 04:10:37;;;;;;;25.03;17.97;;;;;;;;;;7370449;19;20152;-77
2022/05/07 04:13:03;;;;;;;19.90;16.73;;;;;;;;;;7376080;19;20157;-77
2022/05/07 04:15:29;;;;;;;20.83;16.37;;;;;;;;;;7375336;19;20183;-77
2022/05/07 04:17:55;;;;;;;22.70;16.40;;;;;;;;;;7378141;19;20137;-77
2022/05/07 04:20:22;;;;;;;20.83;17.37;;;;;;;;;;7376031;19;20135;-77
2022/05/07 04:22:48;;;;;;;20.90;16.67;;;;;;;;;;7379734;19;20144;-77
2022/05/07 04:25:14;;;;;;;22.13;16.80;;;;;;;;;;7378190;19;20176;-79
2022/05/07 04:27:40;;;;;;;20.77;17.00;;;;;;;;;;7371420;19;20159;-76
2022/05/07 04:30:06;;;;;;;20.70;16.00;;;;;;;;;;7379258;19;20144;-79
2022/05/07 04:32:32;;;;;;;22.40;15.60;;;;;;;;;;7375600;19;20146;-78
2022/05/07 04:34:58;;;;;;;19.53;17.07;;;;;;;;;;7377527;19;20530;-77
2022/05/07 04:37:25;;;;;;;21.37;15.97;;;;;;;;;;7375738;19;20210;-78
2022/05/07 04:39:51;;;;;;;22.87;17.53;;;;;;;;;;7377264;19;20563;-77
2022/05/07 04:42:18;;;;;;;17.83;15.30;;;;;;;;;;7375809;19;20133;-78
2022/05/07 04:44:44;;;;;;;20.10;16.43;;;;;;;;;;7371280;19;20255;-78
2022/05/07 04:47:10;;;;;;;19.20;15.63;;;;;;;;;;7379614;19;20138;-79
2022/05/07 04:49:36;;;;;;;18.47;15.27;;;;;;;;;;7378254;19;20129;-76
2022/05/07 04:52:05;;;;;;;18.67;16.20;;;;;;;;;;7378836;19;24460;-77
2022/05/07 04:54:32;;;;;;;17.17;14.33;;;;;;;;;;7372646;19;20181;-77
2022/05/07 04:56:58;;;;;;;16.97;14.77;;;;;;;;;;7376389;19;20129;-78
2022/05/07 04:59:24;;;;;;;20.97;15.20;;;;;;;;;;7379576;19;20141;-78
2022/05/07 05:01:50;;;;;;;18.40;14.63;;;;;;;;;;7390770;19;20137;-76
2022/05/07 05:04:16;;;;;;;17.87;15.40;;;;;;;;;;7409482;19;20160;-78
2022/05/07 05:06:43;;;;;;;20.97;15.53;;;;;;;;;;7413031;19;20130;-76
2022/05/07 05:09:09;;;;;;;18.70;14.73;;;;;;;;;;7413423;19;20542;-77
2022/05/07 05:11:35;;;;;;;21.00;15.30;;;;;;;;;;7400403;19;20129;-77
2022/05/07 05:15:01;;;;;;;17.50;14.50;;;;;;;;;;7417000;19;20129;-77
2022/05/07 05:16:47;;;;;;;19.00;14.23;;;;;;;;;;7417937;19;20158;-77
2022/05/07 05:19:13;;;;;;;14.50;12.77;;;;;;;;;;7412214;19;20136;-79
2022/05/07 05:21:39;;;;;;;17.57;13.50;;;;;;;;;;7375652;19;20734;-79
2022/05/07 05:24:05;;;;;;;15.37;12.70;;;;;;;;;;7375962;19;20144;-77
2022/05/07 05:26:31;;;;;;;15.83;13.43;;;;;;;;;;7384857;19;20144;-77
2022/05/07 05:28:57;;;;;;;16.73;14.00;;;;;;;;;;7381832;19;20480;-77
2022/05/07 05:31:23;;;;;;;16.50;12.73;;;;;;;;;;7378291;19;20142;-77
2022/05/07 05:33:49;;;;;;;15.07;12.50;;;;;;;;;;7382852;19;20526;-78
2022/05/07 05:36:15;;;;;;;14.50;12.93;;;;;;;;;;7379439;19;20133;-76
2022/05/07 05:38:41;;;;;;;14.87;12.23;;;;;;;;;;7383426;19;20125;-77
2022/05/07 05:41:07;;;;;;;16.27;12.67;;;;;;;;;;7383763;19;20144;-77
2022/05/07 05:43:33;;;;;;;14.97;13.10;;;;;;;;;;7374796;19;20137;-76
2022/05/07 05:46:00;;;;;;;13.27;11.83;;;;;;;;;;7376624;19;20180;-77
2022/05/07 05:48:29;;;;;;;12.97;11.63;;;;;;;;;;7380210;19;20136;-77
2022/05/07 05:50:55;;;;;;;16.73;12.60;;;;;;;;;;7377895;19;20662;-78
2022/05/07 05:53:21;;;;;;;16.50;12.83;;;;;;;;;;7372802;19;20151;-77
2022/05/07 05:55:47;;;;;;;16.87;10.70;;;;;;;;;;7374703;19;20232;-76
2022/05/07 05:58:13;;;;;;;14.93;11.97;;;;;;;;;;7379107;19;20156;-77
2022/05/07 06:00:39;;;;;;;13.50;11.60;;;;;;;;;;7380508;19;20212;-78
2022/05/07 06:03:05;;;;;;;14.23;11.97;;;;;;;;;;7371921;19;20167;-77
2022/05/07 18:09:35;;;;;;;9.80;8.87;;;;;;;;;;7389069;19;20145;-76
2022/05/07 18:12:02;;;;;;;10.77;9.67;;;;;;;;;;7389068;19;20506;-77
2022/05/07 18:14:28;;;;;;;10.73;9.10;;;;;;;;;;7383699;19;20173;-77
2022/05/07 18:16:54;;;;;;;10.17;8.57;;;;;;;;;;7383113;19;20144;-77
2022/05/07 18:19:21;;;;;;;9.43;8.43;;;;;;;;;;7367728;19;20148;-78
2022/05/07 18:21:47;;;;;;;9.87;8.87;;;;;;;;;;7381476;19;20213;-77
2022/05/07 18:24:13;;;;;;;10.00;9.00;;;;;;;;;;7388967;19;20153;-77
2022/05/07 18:26:39;;;;;;;8.93;8.03;;;;;;;;;;7383149;19;20137;-77
2022/05/07 18:29:07;;;;;;;8.87;8.07;;;;;;;;;;7381507;19;20152;-77
2022/05/07 18:31:33;;;;;;;9.53;7.73;;;;;;;;;;7382559;19;20141;-76
2022/05/07 18:33:59;;;;;;;8.27;7.47;;;;;;;;;;7389684;19;20136;-75
2022/05/07 18:44:40;;;;;;;8.10;7.30;;;;;;;;;;7392519;19;20158;-76
2022/05/07 18:47:08;;;;;;;7.80;7.10;;;;;;;;;;7379219;19;20125;-76
2022/05/07 18:49:34;;;;;;;8.00;7.20;;;;;;;;;;7386997;19;20149;-75
2022/05/07 18:52:00;;;;;;;7.77;7.07;;;;;;;;;;7390471;19;20192;-76
2022/05/07 18:54:26;;;;;;;8.43;7.33;;;;;;;;;;7388466;19;20235;-75
2022/05/07 18:59:37;;;;;;;9.47;6.90;;;;;;;;;;7391400;19;20510;-76
2022/05/07 19:02:04;;;;;;;6.97;6.37;;;;;;;;;;7389116;19;20137;-77
2022/05/07 19:04:30;;;;;;;7.20;6.47;;;;;;;;;;7381622;19;20180;-76
2022/05/07 19:06:56;;;;;;;7.07;6.37;;;;;;;;;;7391795;19;20218;-77
2022/05/07 19:09:22;;;;;;;7.47;6.70;;;;;;;;;;7388155;19;20136;-76
2022/05/07 19:11:48;;;;;;;7.30;6.60;;;;;;;;;;7379777;19;20155;-77
2022/05/07 19:14:14;;;;;;;8.27;5.70;;;;;;;;;;7387214;19;20220;-76
2022/05/07 19:16:40;;;;;;;7.97;6.40;;;;;;;;;;7380490;19;20613;-76
2022/05/07 19:19:06;;;;;;;6.47;5.87;;;;;;;;;;7383255;19;20149;-78
2022/05/07 19:21:35;;;;;;;8.03;6.23;;;;;;;;;;7382431;19;20512;-77
2022/05/07 19:24:03;;;;;;;6.40;5.80;;;;;;;;;;7381160;19;20172;-76
2022/05/07 19:26:30;;;;;;;7.80;7.00;;;;;;;;;;7386681;19;20125;-75
2022/05/07 19:28:56;;;;;;;7.43;6.67;;;;;;;;;;7375406;19;20137;-76
2022/05/07 19:31:22;;;;;;;8.07;7.27;;;;;;;;;;7389404;19;20128;-78
2022/05/07 19:33:49;;;;;;;7.50;6.77;;;;;;;;;;7389233;19;20124;-76
2022/05/07 19:36:16;;;;;;;8.87;7.83;;;;;;;;;;7376139;19;20156;-75
2022/05/07 19:38:43;;;;;;;7.80;6.97;;;;;;;;;;7389665;19;20125;-76
2022/05/07 19:41:10;;;;;;;8.90;8.07;;;;;;;;;;7391350;19;20113;-76
2022/05/07 19:43:36;;;;;;;9.87;8.47;;;;;;;;;;7388273;19;20160;-75
2022/05/07 19:46:02;;;;;;;9.27;8.37;;;;;;;;;;7390626;19;20149;-75
2022/05/07 19:48:29;;;;;;;10.83;8.90;;;;;;;;;;7396967;19;20150;-75
2022/05/07 19:50:56;;;;;;;11.37;10.17;;;;;;;;;;7390204;19;20156;-76
2022/05/07 19:53:23;;;;;;;11.47;9.97;;;;;;;;;;7383563;19;20176;-77
2022/05/07 19:55:49;;;;;;;10.33;9.30;;;;;;;;;;7386334;19;20200;-76
2022/05/07 19:58:18;;;;;;;12.47;9.80;;;;;;;;;;7394646;19;20610;-76
2022/05/07 20:00:44;;;;;;;11.63;10.00;;;;;;;;;;7398826;19;20440;-76
2022/05/07 20:03:10;;;;;;;10.87;9.70;;;;;;;;;;7393272;19;20189;-76
2022/05/07 20:05:36;;;;;;;10.23;9.13;;;;;;;;;;7383474;19;20192;-76
2022/05/07 20:08:03;;;;;;;11.77;9.73;;;;;;;;;;7394142;19;20132;-76
2022/05/07 20:10:29;;;;;;;9.90;8.87;;;;;;;;;;7391837;19;20121;-77
2022/05/07 20:12:57;;;;;;;12.43;9.73;;;;;;;;;;7396168;19;20152;-77
2022/05/07 20:15:23;;;;;;;11.17;9.97;;;;;;;;;;7395407;19;20493;-77
2022/05/07 20:17:49;;;;;;;10.63;9.50;;;;;;;;;;7399932;19;20962;-77
2022/05/07 20:20:16;;;;;;;11.00;9.77;;;;;;;;;;7396168;19;20145;-76
2022/05/07 20:22:42;;;;;;;10.90;9.80;;;;;;;;;;7378990;19;20155;-78
2022/05/07 20:25:08;;;;;;;12.00;10.70;;;;;;;;;;7391404;19;20148;-77
2022/05/07 20:27:35;;;;;;;10.90;9.80;;;;;;;;;;7392980;19;20144;-76
2022/05/07 20:30:02;;;;;;;11.97;10.60;;;;;;;;;;7391806;19;20560;-77
2022/05/07 20:32:28;;;;;;;10.73;9.60;;;;;;;;;;7391386;19;20625;-77
2022/05/07 20:34:54;;;;;;;11.90;9.57;;;;;;;;;;7392029;19;20208;-76
2022/05/07 20:37:22;;;;;;;12.60;10.27;;;;;;;;;;7391713;19;20599;-79
2022/05/07 20:39:48;;;;;;;10.37;9.27;;;;;;;;;;7391135;19;20137;-76
2022/05/07 20:42:14;;;;;;;9.93;8.97;;;;;;;;;;7390704;19;20611;-75
2022/05/07 20:47:25;;;;;;;10.80;9.70;;;;;;;;;;7385774;19;22345;-76
2022/05/07 20:49:51;;;;;;;12.40;9.43;;;;;;;;;;7385929;19;21411;-76
2022/05/07 20:52:18;;;;;;;11.90;10.60;;;;;;;;;;7385298;19;20639;-75
2022/05/07 20:54:44;;;;;;;10.53;9.43;;;;;;;;;;7385690;19;20172;-79
2022/05/07 20:57:10;;;;;;;10.77;9.70;;;;;;;;;;7387028;19;20153;-77
2022/05/07 20:59:37;;;;;;;10.77;9.67;;;;;;;;;;7390827;19;20460;-76
2022/05/07 21:02:05;;;;;;;9.97;8.67;;;;;;;;;;7391350;19;20482;-76
2022/05/07 21:04:34;;;;;;;10.50;9.40;;;;;;;;;;7390242;19;20168;-76
2022/05/07 21:07:00;;;;;;;11.07;9.83;;;;;;;;;;7393266;19;20446;-76
2022/05/07 21:09:26;;;;;;;10.50;9.40;;;;;;;;;;7384372;19;20157;-76
2022/05/07 21:11:52;;;;;;;9.90;8.90;;;;;;;;;;7391510;19;20152;-77
2022/05/07 21:14:18;;;;;;;10.00;9.00;;;;;;;;;;7385861;19;20209;-75
2022/05/07 21:16:44;;;;;;;9.23;8.33;;;;;;;;;;7392198;19;20213;-76
2022/05/07 21:19:11;;;;;;;10.10;9.03;;;;;;;;;;7394462;19;20583;-76
2022/05/07 21:21:37;;;;;;;10.70;9.60;;;;;;;;;;7389558;19;20618;-76
2022/05/07 21:24:03;;;;;;;10.50;9.10;;;;;;;;;;7382599;19;20141;-76
2022/05/07 21:26:35;;;;;;;16.70;13.33;;;;;;;;;;7388393;19;20635;-76
2022/05/07 21:29:02;;;;;;;11.63;8.53;;;;;;;;;;7390102;19;20471;-76
2022/05/07 21:31:28;;;;;;;10.00;9.00;;;;;;;;;;7392379;19;20129;-78
2022/05/07 21:33:54;;;;;;;11.63;9.40;;;;;;;;;;7383287;19;20159;-77
2022/05/07 21:36:20;;;;;;;10.20;9.20;;;;;;;;;;7389055;19;20129;-77
2022/05/07 21:38:46;;;;;;;11.80;8.87;;;;;;;;;;7388797;19;20883;-79
2022/05/07 21:41:14;;;;;;;10.83;8.60;;;;;;;;;;7386396;19;20121;-77
2022/05/07 21:43:40;;;;;;;10.60;9.50;;;;;;;;;;7390435;19;20133;-76
2022/05/07 21:46:07;;;;;;;12.57;8.90;;;;;;;;;;7390530;19;20161;-77
2022/05/07 21:48:33;;;;;;;10.73;9.63;;;;;;;;;;7388538;19;20162;-77
2022/05/07 21:51:19;;;;;;;10.87;9.70;;;;;;;;;;7385026;19;20151;-77
2022/05/07 21:53:45;;;;;;;11.20;9.27;;;;;;;;;;7386087;19;20159;-78
2022/05/07 21:56:11;;;;;;;10.40;9.30;;;;;;;;;;7387675;19;20152;-76
2022/05/07 21:58:37;;;;;;;10.70;9.60;;;;;;;;;;7391598;19;20476;-76
2022/05/07 22:01:03;;;;;;;12.00;9.70;;;;;;;;;;7388498;19;20133;-77
2022/05/07 22:03:30;;;;;;;11.63;10.43;;;;;;;;;;7391601;19;20113;-76
2022/05/07 22:05:56;;;;;;;11.13;9.10;;;;;;;;;;7386648;19;20152;-78
2022/05/07 22:08:23;;;;;;;10.33;9.20;;;;;;;;;;7390313;19;20128;-75
2022/05/07 22:10:49;;;;;;;10.43;8.90;;;;;;;;;;7390019;19;20133;-76
2022/05/07 22:13:16;;;;;;;10.97;9.87;;;;;;;;;;7391559;19;20129;-76
2022/05/07 22:15:42;;;;;;;12.70;9.93;;;;;;;;;;7386233;19;20156;-75
2022/05/07 22:18:09;;;;;;;10.70;9.60;;;;;;;;;;7387203;19;20211;-75
2022/05/07 22:20:35;;;;;;;10.47;9.43;;;;;;;;;;7389321;19;20137;-76
2022/05/07 22:23:01;;;;;;;10.33;9.20;;;;;;;;;;7387534;19;20133;-76
2022/05/07 22:25:28;;;;;;;11.97;10.57;;;;;;;;;;7388050;19;20148;-76
2022/05/07 22:27:54;;;;;;;12.23;10.47;;;;;;;;;;7395080;19;20168;-75
2022/05/07 22:30:19;;;;;;;12.33;10.27;;;;;;;;;;7385656;19;20500;-77
2022/05/07 22:32:46;;;;;;;11.73;10.60;;;;;;;;;;7387124;19;20153;-75
2022/05/07 22:35:12;;;;;;;10.70;9.60;;;;;;;;;;7390374;19;20168;-75
2022/05/07 22:37:38;;;;;;;10.73;9.63;;;;;;;;;;7400409;19;20105;-76
2022/05/07 22:40:05;;;;;;;11.97;10.40;;;;;;;;;;7422385;19;20133;-77
2022/05/07 22:42:31;;;;;;;11.83;10.37;;;;;;;;;;7423110;19;20177;-78
2022/05/07 22:44:57;;;;;;;11.27;10.03;;;;;;;;;;7421619;19;20168;-78
2022/05/07 22:47:24;;;;;;;12.40;11.10;;;;;;;;;;7417885;19;20168;-77
2022/05/07 22:49:54;;;;;;;12.20;10.90;;;;;;;;;;7386000;19;20155;-78
2022/05/07 22:52:20;;;;;;;11.83;10.63;;;;;;;;;;7389976;19;20442;-75
2022/05/07 22:54:45;;;;;;;12.07;10.77;;;;;;;;;;7388776;19;20179;-75
2022/05/07 22:57:11;;;;;;;11.83;10.60;;;;;;;;;;7387118;19;20137;-75
2022/05/07 22:59:37;;;;;;;12.40;11.10;;;;;;;;;;7389432;19;20203;-75
2022/05/07 23:02:03;;;;;;;12.17;10.50;;;;;;;;;;7380965;19;20136;-76
2022/05/07 23:04:29;;;;;;;12.50;11.07;;;;;;;;;;7387922;19;20276;-75
2022/05/07 23:06:55;;;;;;;14.57;11.17;;;;;;;;;;7388560;19;20643;-76
2022/05/07 23:09:22;;;;;;;12.50;11.20;;;;;;;;;;7391092;19;20140;-75
2022/05/07 23:11:48;;;;;;;14.43;11.50;;;;;;;;;;7381351;19;20126;-76
2022/05/07 23:14:14;;;;;;;12.07;10.77;;;;;;;;;;7386875;19;20161;-76
2022/05/07 23:16:40;;;;;;;12.30;10.93;;;;;;;;;;7388137;19;20121;-76
2022/05/07 23:19:06;;;;;;;12.50;11.23;;;;;;;;;;7390429;19;20509;-75
2022/05/07 23:21:32;;;;;;;11.57;10.37;;;;;;;;;;7384597;19;20204;-76
2022/05/07 23:23:59;;;;;;;13.33;10.93;;;;;;;;;;7389301;19;20140;-76
2022/05/07 23:26:25;;;;;;;13.40;11.10;;;;;;;;;;7387589;19;20125;-75
2022/05/07 23:28:51;;;;;;;14.50;11.73;;;;;;;;;;7389524;19;20139;-75
2022/05/07 23:31:17;;;;;;;14.80;11.60;;;;;;;;;;7387555;19;20132;-75
2022/05/07 23:33:43;;;;;;;14.90;11.83;;;;;;;;;;7379730;19;20142;-75
2022/05/07 23:36:09;;;;;;;23.30;17.43;;;;;;;;;;7388306;19;20148;-76
2022/05/07 23:38:35;;;;;;;16.23;12.47;;;;;;;;;;7391016;19;20140;-75
2022/05/07 23:41:01;;;;;;;16.03;13.67;;;;;;;;;;7384117;19;20153;-76
2022/05/07 23:43:27;;;;;;;13.53;11.57;;;;;;;;;;7386277;19;20579;-75
2022/05/07 23:45:54;;;;;;;13.83;11.87;;;;;;;;;;7384323;19;20153;-76
2022/05/07 23:48:20;;;;;;;15.77;12.70;;;;;;;;;;7388181;19;20141;-75
2022/05/07 23:50:46;;;;;;;12.83;11.53;;;;;;;;;;7387056;19;20154;-76
2022/05/07 23:53:13;;;;;;;12.43;11.23;;;;;;;;;;7388964;19;20137;-77
2022/05/07 23:55:39;;;;;;;13.00;11.33;;;;;;;;;;7388336;19;20157;-75
2022/05/07 23:58:05;;;;;;;12.83;11.53;;;;;;;;;;7388402;19;20515;-75
